Time;durP1;ratioP1;P1;durP2;ratioP2;P2;SDS_P1;SDS_P2;PMS_P1;PMS_P2;Temp;Humidity;BMP_temperature;BMP_pressure;BME280_temperature;BME280_humidity;BME280_pressure;Samples;Min_cycle;Max_cycle;Signal;HPM_P1;HPM_P2
2022/03/25 00:00:27;;;;;;;1.63;1.13;;;;;;;-143.85;100.00;70650.75;5035095;28;20023;-75
2022/03/25 00:02:53;;;;;;;1.17;1.17;;;;;;;-143.85;100.00;70650.75;5035021;28;20045;-80
2022/03/25 00:05:19;;;;;;;0.60;0.60;;;;;;;-143.85;100.00;70650.75;5035067;28;20029;-76
2022/03/25 00:07:45;;;;;;;0.70;0.70;;;;;;;-143.85;100.00;70650.75;5035581;28;20049;-78
2022/03/25 00:10:10;;;;;;;2.38;1.10;;;;;;;-143.85;100.00;70650.75;5035369;28;20396;-79
2022/03/25 00:12:36;;;;;;;1.20;1.17;;;;;;;-143.85;100.00;70650.75;5036083;28;20086;-78
2022/03/25 00:15:02;;;;;;;1.05;1.05;;;;;;;-143.85;100.00;70650.75;5035001;28;20064;-79
2022/03/25 00:17:27;;;;;;;0.73;0.73;;;;;;;-143.85;100.00;70650.75;5034920;28;20497;-79
2022/03/25 00:19:52;;;;;;;1.45;1.10;;;;;;;-143.85;100.00;70650.75;5034677;28;20022;-78
2022/03/25 00:22:18;;;;;;;0.70;0.70;;;;;;;-143.85;100.00;70650.75;5034879;28;20022;-79
2022/03/25 00:24:44;;;;;;;1.77;1.67;;;;;;;-143.85;100.00;70650.75;5034690;28;20116;-80
2022/03/25 00:27:09;;;;;;;0.82;0.82;;;;;;;-143.85;100.00;70650.75;5034722;28;20029;-80
2022/03/25 00:29:36;;;;;;;0.95;0.95;;;;;;;-143.85;100.00;70650.75;5034362;28;20037;-79
2022/03/25 00:32:02;;;;;;;0.68;0.65;;;;;;;-143.85;100.00;70650.75;5035114;28;20040;-80
2022/03/25 00:34:28;;;;;;;2.85;2.05;;;;;;;-143.85;100.00;70650.75;5035724;28;20059;-79
2022/03/25 00:36:54;;;;;;;27.23;1.55;;;;;;;-143.85;100.00;70650.75;5033954;28;20112;-79
2022/03/25 00:39:19;;;;;;;3.90;3.50;;;;;;;-143.85;100.00;70650.75;5034288;28;20083;-80
2022/03/25 00:41:44;;;;;;;1.60;1.50;;;;;;;-143.85;100.00;70650.75;5034157;28;20025;-79
2022/03/25 00:44:10;;;;;;;0.82;0.82;;;;;;;-143.85;100.00;70650.75;5034211;28;20479;-79
2022/03/25 00:46:36;;;;;;;0.50;0.50;;;;;;;-143.85;100.00;70650.75;5033362;28;20098;-79
2022/03/25 00:49:04;;;;;;;12.95;2.55;;;;;;;-143.85;100.00;70650.75;5034008;28;20048;-79
2022/03/25 00:51:29;;;;;;;0.80;0.80;;;;;;;-143.85;100.00;70650.75;5033998;28;20389;-79
2022/03/25 00:53:55;;;;;;;0.93;0.93;;;;;;;-143.85;100.00;70650.75;5033909;28;20029;-79
2022/03/25 00:56:21;;;;;;;1.20;1.20;;;;;;;-143.85;100.00;70650.75;5033792;28;20025;-78
2022/03/25 00:58:46;;;;;;;0.73;0.73;;;;;;;-143.85;100.00;70650.75;5035169;28;20028;-79
2022/03/25 01:01:12;;;;;;;0.60;0.60;;;;;;;-143.85;100.00;70650.75;5033807;28;20018;-79
2022/03/25 01:03:38;;;;;;;1.75;1.63;;;;;;;-143.85;100.00;70650.75;5033574;28;20110;-79
2022/03/25 01:06:03;;;;;;;0.88;0.70;;;;;;;-143.85;100.00;70650.75;5033265;28;20075;-79
2022/03/25 01:08:29;;;;;;;2.15;1.90;;;;;;;-143.85;100.00;70650.75;5033480;28;20473;-81
2022/03/25 01:10:55;;;;;;;1.10;0.45;;;;;;;-143.85;100.00;70650.75;5033659;28;20036;-79
2022/03/25 01:13:20;;;;;;;0.90;0.90;;;;;;;-143.85;100.00;70650.75;5034033;28;20021;-79
2022/03/25 01:15:46;;;;;;;1.30;1.20;;;;;;;-143.85;100.00;70650.75;5033550;28;20465;-79
2022/03/25 01:18:11;;;;;;;0.30;0.30;;;;;;;-143.85;100.00;70650.75;5033609;28;20056;-80
2022/03/25 01:20:36;;;;;;;1.08;0.98;;;;;;;-143.85;100.00;70650.75;5033256;28;20064;-79
2022/03/25 01:23:02;;;;;;;0.80;0.80;;;;;;;-143.85;100.00;70650.75;5033385;28;20029;-78
2022/03/25 01:25:28;;;;;;;2.72;1.92;;;;;;;-143.85;100.00;70650.75;5033590;28;20022;-79
2022/03/25 01:27:54;;;;;;;1.45;1.35;;;;;;;-143.85;100.00;70650.75;5033141;28;20057;-79
2022/03/25 01:30:19;;;;;;;1.42;1.33;;;;;;;-143.85;100.00;70650.75;5032209;28;20026;-78
2022/03/25 01:32:45;;;;;;;2.10;1.63;;;;;;;-143.85;100.00;70650.75;5033671;28;20457;-79
2022/03/25 01:35:11;;;;;;;0.77;0.77;;;;;;;-143.85;100.00;70650.75;5033204;28;20018;-81
2022/03/25 01:37:37;;;;;;;0.57;0.57;;;;;;;-143.85;100.00;70650.75;5033301;28;20539;-78
2022/03/25 01:40:09;;;;;;;1.55;1.45;;;;;;;-143.85;100.00;70650.75;5034353;28;20017;-80
2022/03/25 01:42:36;;;;;;;0.73;0.73;;;;;;;-143.85;100.00;70650.75;5034741;28;20156;-77
2022/03/25 01:45:04;;;;;;;4.45;2.08;;;;;;;-143.85;100.00;70650.75;5033330;28;20028;-79
2022/03/25 01:47:32;;;;;;;0.95;0.95;;;;;;;-143.85;100.00;70650.75;5033336;28;20103;-80
2022/03/25 01:49:58;;;;;;;0.50;0.50;;;;;;;-143.85;100.00;70650.75;5033285;28;20464;-78
2022/03/25 01:52:24;;;;;;;2.35;1.10;;;;;;;-143.85;100.00;70650.75;5033214;28;20017;-78
2022/03/25 01:54:50;;;;;;;0.98;0.98;;;;;;;-143.85;100.00;70650.75;5033784;28;20461;-79
2022/03/25 01:57:18;;;;;;;1.10;1.10;;;;;;;-143.85;100.00;70650.75;5032941;28;20025;-77
2022/03/25 01:59:45;;;;;;;2.63;2.25;;;;;;;-143.85;100.00;70650.75;5032923;28;20108;-78
2022/03/25 02:02:11;;;;;;;0.95;0.95;;;;;;;-143.85;100.00;70650.75;5034223;28;20087;-80
2022/03/25 02:04:38;;;;;;;0.93;0.93;;;;;;;-143.85;100.00;70650.75;5032997;28;20021;-76
2022/03/25 02:07:04;;;;;;;0.68;0.68;;;;;;;-143.85;100.00;70650.75;5032361;28;20013;-76
2022/03/25 02:09:31;;;;;;;0.50;0.50;;;;;;;-143.85;100.00;70650.75;5033738;28;20048;-76
2022/03/25 02:11:57;;;;;;;1.50;1.35;;;;;;;-143.85;100.00;70650.75;5032533;28;20096;-76
2022/03/25 02:14:23;;;;;;;1.73;1.52;;;;;;;-143.85;100.00;70650.75;5032829;28;20025;-80
2022/03/25 02:16:49;;;;;;;3.08;1.20;;;;;;;-143.85;100.00;70650.75;5032517;28;20018;-80
2022/03/25 02:19:18;;;;;;;0.60;0.60;;;;;;;-143.85;100.00;70650.75;5032499;28;20047;-81
2022/03/25 02:21:45;;;;;;;2.47;1.13;;;;;;;-143.85;100.00;70650.75;5033878;28;20104;-79
2022/03/25 02:24:12;;;;;;;0.52;0.52;;;;;;;-143.85;100.00;70650.75;5032332;28;20053;-79
2022/03/25 02:26:38;;;;;;;0.38;0.38;;;;;;;-143.85;100.00;70650.75;5033327;28;20036;-79
2022/03/25 02:29:05;;;;;;;0.60;0.60;;;;;;;-143.85;100.00;70650.75;5032125;28;20018;-79
2022/03/25 02:31:30;;;;;;;0.77;0.77;;;;;;;-143.85;100.00;70650.75;5032522;28;20021;-79
2022/03/25 02:34:00;;;;;;;0.43;0.43;;;;;;;-143.85;100.00;70650.75;5032171;28;20028;-80
2022/03/25 02:36:25;;;;;;;0.88;0.88;;;;;;;-143.85;100.00;70650.75;5032580;28;20048;-80
2022/03/25 02:38:50;;;;;;;1.23;1.23;;;;;;;-143.85;100.00;70650.75;5032079;28;20457;-79
2022/03/25 02:41:16;;;;;;;1.63;1.35;;;;;;;-143.85;100.00;70650.75;5031995;28;20017;-79
2022/03/25 02:43:42;;;;;;;0.85;0.85;;;;;;;-143.85;100.00;70650.75;5032066;28;20128;-79
2022/03/25 02:46:07;;;;;;;0.90;0.80;;;;;;;-143.85;100.00;70650.75;5031160;28;20057;-79
2022/03/25 02:48:33;;;;;;;0.55;0.55;;;;;;;-143.85;100.00;70650.75;5032187;28;20029;-80
2022/03/25 02:50:59;;;;;;;1.23;1.13;;;;;;;-143.85;100.00;70650.75;5031986;28;20065;-80
2022/03/25 02:53:25;;;;;;;1.27;1.17;;;;;;;-143.85;100.00;70650.75;5031841;28;20051;-80
2022/03/25 02:55:51;;;;;;;2.05;1.95;;;;;;;-143.85;100.00;70650.75;5031884;28;20083;-79
2022/03/25 02:58:18;;;;;;;1.58;1.48;;;;;;;-143.85;100.00;70650.75;5031710;28;20022;-80
2022/03/25 03:00:43;;;;;;;0.50;0.50;;;;;;;-143.85;100.00;70650.75;5031787;28;20047;-80
2022/03/25 03:03:09;;;;;;;1.48;1.40;;;;;;;-143.85;100.00;70650.75;5031836;28;20022;-80
2022/03/25 03:05:34;;;;;;;1.77;1.67;;;;;;;-143.85;100.00;70650.75;5032707;28;20026;-80
2022/03/25 03:08:00;;;;;;;8.20;1.35;;;;;;;-143.85;100.00;70650.75;5031709;28;20036;-80
2022/03/25 03:10:26;;;;;;;0.70;0.70;;;;;;;-143.85;100.00;70650.75;5032347;28;20036;-78
2022/03/25 03:12:52;;;;;;;2.78;1.95;;;;;;;-143.85;100.00;70650.75;5032510;28;20165;-80
2022/03/25 03:15:19;;;;;;;0.85;0.85;;;;;;;-143.85;100.00;70650.75;5032263;28;20047;-80
2022/03/25 03:17:45;;;;;;;1.38;1.27;;;;;;;-143.85;100.00;70650.75;5031806;28;20040;-80
2022/03/25 03:20:13;;;;;;;0.50;0.50;;;;;;;-143.85;100.00;70650.75;5031741;28;20044;-80
2022/03/25 03:22:39;;;;;;;1.25;1.15;;;;;;;-143.85;100.00;70650.75;5032279;28;20373;-80
2022/03/25 03:25:05;;;;;;;1.33;1.33;;;;;;;-143.85;100.00;70650.75;5031808;28;20048;-80
2022/03/25 03:27:31;;;;;;;0.60;0.60;;;;;;;-143.85;100.00;70650.75;5031366;28;20021;-80
2022/03/25 03:29:57;;;;;;;11.98;1.30;;;;;;;-143.85;100.00;70650.75;5033048;28;20032;-79
2022/03/25 03:32:25;;;;;;;3.15;1.08;;;;;;;-143.85;100.00;70650.75;5031638;28;20492;-80
2022/03/25 03:34:52;;;;;;;1.38;1.27;;;;;;;-143.85;100.00;70650.75;5031702;28;20096;-81
2022/03/25 03:37:18;;;;;;;1.85;1.08;;;;;;;-143.85;100.00;70650.75;5031658;28;20088;-80
2022/03/25 03:39:43;;;;;;;0.68;0.68;;;;;;;-143.85;100.00;70650.75;5031639;28;20030;-80
2022/03/25 03:42:08;;;;;;;0.47;0.47;;;;;;;-143.85;100.00;70650.75;5031692;28;20076;-80
2022/03/25 03:44:36;;;;;;;1.83;1.73;;;;;;;-143.85;100.00;70650.75;5031649;28;20492;-80
2022/03/25 03:47:03;;;;;;;1.20;1.10;;;;;;;-143.85;100.00;70650.75;5032370;28;20051;-80
2022/03/25 03:49:28;;;;;;;1.95;1.25;;;;;;;-143.85;100.00;70650.75;5031553;28;20030;-81
2022/03/25 03:51:54;;;;;;;5.72;1.58;;;;;;;-143.85;100.00;70650.75;5032755;28;20040;-79
2022/03/25 03:54:19;;;;;;;0.68;0.68;;;;;;;-143.85;100.00;70650.75;5033155;28;20130;-80
2022/03/25 03:56:44;;;;;;;2.05;0.80;;;;;;;-143.85;100.00;70650.75;5036254;28;20094;-79
2022/03/25 03:59:10;;;;;;;0.70;0.70;;;;;;;-143.85;100.00;70650.75;5036078;28;20027;-79
2022/03/25 04:01:36;;;;;;;1.02;0.98;;;;;;;-143.85;100.00;70650.75;5034789;28;20055;-79
2022/03/25 04:04:01;;;;;;;1.38;1.27;;;;;;;-143.85;100.00;70650.75;5035056;28;20021;-79
2022/03/25 04:06:27;;;;;;;0.30;0.30;;;;;;;-143.85;100.00;70650.75;5034849;28;20140;-79
2022/03/25 04:08:52;;;;;;;0.60;0.60;;;;;;;-143.85;100.00;70650.75;5034486;28;20487;-79
2022/03/25 04:11:18;;;;;;;0.75;0.75;;;;;;;-143.85;100.00;70650.75;5034617;28;20025;-80
2022/03/25 04:13:45;;;;;;;1.17;1.17;;;;;;;-143.85;100.00;70650.75;5035816;28;20465;-80
2022/03/25 04:16:10;;;;;;;1.85;1.63;;;;;;;-143.85;100.00;70650.75;5034451;28;20128;-81
2022/03/25 04:18:36;;;;;;;0.60;0.60;;;;;;;-143.85;100.00;70650.75;5034998;28;20115;-80
2022/03/25 04:21:02;;;;;;;0.50;0.50;;;;;;;-143.85;100.00;70650.75;5035623;28;20022;-80
2022/03/25 04:23:27;;;;;;;1.88;1.58;;;;;;;-143.85;100.00;70650.75;5034645;28;20018;-80
2022/03/25 04:25:53;;;;;;;0.35;0.35;;;;;;;-143.85;100.00;70650.75;5036152;28;20419;-80
2022/03/25 04:28:18;;;;;;;0.77;0.77;;;;;;;-143.85;100.00;70650.75;5034605;28;20114;-79
2022/03/25 04:30:44;;;;;;;0.98;0.98;;;;;;;-143.85;100.00;70650.75;5034863;28;20036;-77
2022/03/25 04:33:09;;;;;;;1.80;1.55;;;;;;;-143.85;100.00;70650.75;5039043;28;20017;-76
2022/03/25 04:35:35;;;;;;;3.70;1.35;;;;;;;-143.85;100.00;70650.75;5036510;28;20022;-78
2022/03/25 04:38:02;;;;;;;1.95;1.15;;;;;;;-143.85;100.00;70650.75;5034635;28;20124;-79
2022/03/25 04:40:30;;;;;;;0.73;0.73;;;;;;;-143.85;100.00;70650.75;5034554;28;20033;-77
2022/03/25 04:42:57;;;;;;;1.83;1.70;;;;;;;-143.85;100.00;70650.75;5034762;28;20056;-77
2022/03/25 04:45:24;;;;;;;2.60;2.40;;;;;;;-143.85;100.00;70650.75;5034059;28;20057;-75
2022/03/25 04:47:50;;;;;;;0.57;0.57;;;;;;;-143.85;100.00;70650.75;5034552;28;20022;-79
2022/03/25 04:50:16;;;;;;;2.60;1.98;;;;;;;-143.85;100.00;70650.75;5034095;28;20025;-78
2022/03/25 04:52:41;;;;;;;0.60;0.60;;;;;;;-143.85;100.00;70650.75;5034500;28;20025;-81
2022/03/25 04:55:07;;;;;;;0.70;0.70;;;;;;;-143.85;100.00;70650.75;5034328;28;20117;-81
2022/03/25 04:57:33;;;;;;;0.47;0.47;;;;;;;-143.85;100.00;70650.75;5034173;28;20025;-79
2022/03/25 04:59:59;;;;;;;0.77;0.77;;;;;;;-143.85;100.00;70650.75;5034232;28;20022;-77
2022/03/25 05:02:24;;;;;;;0.68;0.68;;;;;;;-143.85;100.00;70650.75;5034377;28;20022;-75
2022/03/25 05:04:49;;;;;;;2.58;1.33;;;;;;;-143.85;100.00;70650.75;5034016;28;20026;-77
2022/03/25 05:07:16;;;;;;;1.95;1.85;;;;;;;-143.85;100.00;70650.75;5036357;28;20028;-78
2022/03/25 05:09:42;;;;;;;1.45;1.35;;;;;;;-143.85;100.00;70650.75;5038330;28;20036;-78
2022/03/25 05:12:09;;;;;;;2.80;1.30;;;;;;;-143.85;100.00;70650.75;5038261;28;20021;-75
2022/03/25 05:14:34;;;;;;;0.75;0.75;;;;;;;-143.85;100.00;70650.75;5037073;28;20036;-74
2022/03/25 05:17:00;;;;;;;0.98;0.95;;;;;;;-143.85;100.00;70650.75;5038624;28;20029;-75
2022/03/25 05:19:26;;;;;;;1.38;1.05;;;;;;;-143.85;100.00;70650.75;5037696;28;20111;-76
2022/03/25 05:21:51;;;;;;;0.68;0.68;;;;;;;-143.85;100.00;70650.75;5038250;28;20053;-79
2022/03/25 05:24:17;;;;;;;0.63;0.63;;;;;;;-143.85;100.00;70650.75;5038668;28;20025;-80
2022/03/25 05:26:42;;;;;;;0.60;0.60;;;;;;;-143.85;100.00;70650.75;5034593;28;20013;-79
2022/03/25 05:29:09;;;;;;;1.63;1.17;;;;;;;-143.85;100.00;70650.75;5036430;28;20029;-78
2022/03/25 05:31:36;;;;;;;1.38;1.20;;;;;;;-143.85;100.00;70650.75;5037124;28;20017;-79
2022/03/25 05:34:04;;;;;;;1.23;1.20;;;;;;;-143.85;100.00;70650.75;5038073;28;20044;-79
2022/03/25 05:36:31;;;;;;;2.42;1.58;;;;;;;-143.85;100.00;70650.75;5039489;28;20021;-79
2022/03/25 05:38:57;;;;;;;1.27;1.17;;;;;;;-143.85;100.00;70650.75;5039820;28;20056;-80
2022/03/25 05:41:24;;;;;;;1.23;1.13;;;;;;;-143.85;100.00;70650.75;5032754;28;20103;-78
2022/03/25 05:43:50;;;;;;;1.63;1.52;;;;;;;-143.85;100.00;70650.75;5032860;28;20032;-76
2022/03/25 05:46:16;;;;;;;0.77;0.77;;;;;;;-143.85;100.00;70650.75;5032090;28;20054;-75
2022/03/25 05:48:41;;;;;;;0.85;0.85;;;;;;;-143.85;100.00;70650.75;5032591;28;20021;-74
2022/03/25 05:51:07;;;;;;;0.55;0.55;;;;;;;-143.85;100.00;70650.75;5033409;28;20075;-77
2022/03/25 05:53:33;;;;;;;1.38;1.27;;;;;;;-143.85;100.00;70650.75;5040021;28;20104;-73
2022/03/25 05:56:00;;;;;;;0.73;0.73;;;;;;;-143.85;100.00;70650.75;5032720;28;20029;-73
2022/03/25 05:58:26;;;;;;;0.95;0.82;;;;;;;-143.85;100.00;70650.75;5031612;28;20025;-73
2022/03/25 06:00:51;;;;;;;0.73;0.73;;;;;;;-143.85;100.00;70650.75;5031648;28;20559;-75
2022/03/25 06:03:17;;;;;;;2.97;1.60;;;;;;;-143.85;100.00;70650.75;5031908;28;20057;-73
2022/03/25 06:05:42;;;;;;;1.65;0.70;;;;;;;-143.85;100.00;70650.75;5040811;28;20032;-75
2022/03/25 06:08:09;;;;;;;2.42;1.63;;;;;;;-143.85;100.00;70650.75;5041344;28;20049;-73
2022/03/25 06:10:34;;;;;;;1.35;0.90;;;;;;;-143.85;100.00;70650.75;5047145;28;20032;-74
2022/03/25 06:13:00;;;;;;;4.85;1.23;;;;;;;-143.85;100.00;70650.75;5042846;28;20021;-72
2022/03/25 06:15:25;;;;;;;2.67;1.40;;;;;;;-143.85;100.00;70650.75;5032716;28;20703;-73
2022/03/25 06:17:51;;;;;;;4.63;2.13;;;;;;;-143.85;100.00;70650.75;5041396;28;20021;-73
2022/03/25 06:20:18;;;;;;;2.47;2.28;;;;;;;-143.85;100.00;70650.75;5045125;28;20396;-73
2022/03/25 06:22:44;;;;;;;2.30;1.00;;;;;;;-143.85;100.00;70650.75;5050165;28;20017;-76
2022/03/25 06:25:12;;;;;;;0.70;0.70;;;;;;;-143.85;100.00;70650.75;5051800;28;20529;-74
2022/03/25 06:27:48;;;;;;;2.63;1.73;;;;;;;-143.85;100.00;70650.75;5051034;28;20017;-74
2022/03/25 06:30:14;;;;;;;0.63;0.63;;;;;;;-143.85;100.00;70650.75;5052180;28;20086;-75
2022/03/25 06:32:41;;;;;;;1.67;1.08;;;;;;;-143.85;100.00;70650.75;5051216;28;20260;-74
2022/03/25 06:35:07;;;;;;;1.77;1.33;;;;;;;-143.85;100.00;70650.75;5052367;28;20031;-74
2022/03/25 06:37:33;;;;;;;12.23;1.90;;;;;;;-143.85;100.00;70650.75;5052595;28;20017;-73
2022/03/25 06:39:58;;;;;;;1.13;1.02;;;;;;;-143.85;100.00;70650.75;5051520;28;20021;-73
2022/03/25 06:42:24;;;;;;;0.50;0.50;;;;;;;-143.85;100.00;70650.75;5051369;28;20086;-73
2022/03/25 06:44:49;;;;;;;1.50;0.80;;;;;;;-143.85;100.00;70650.75;5051098;28;20032;-73
2022/03/25 06:47:15;;;;;;;12.38;1.25;;;;;;;-143.85;100.00;70650.75;5052052;28;20064;-74
2022/03/25 06:49:40;;;;;;;3.60;1.85;;;;;;;-143.85;100.00;70650.75;5051122;28;20055;-73
2022/03/25 06:52:06;;;;;;;2.65;1.20;;;;;;;-143.85;100.00;70650.75;5051118;28;20029;-74
2022/03/25 06:54:32;;;;;;;8.25;2.47;;;;;;;-143.85;100.00;70650.75;5051026;28;20093;-74
2022/03/25 06:56:58;;;;;;;0.90;0.90;;;;;;;-143.85;100.00;70650.75;5051113;28;20484;-74
2022/03/25 06:59:23;;;;;;;12.73;2.00;;;;;;;-143.85;100.00;70650.75;5051514;28;20020;-74
2022/03/25 07:01:49;;;;;;;1.88;1.05;;;;;;;-143.85;100.00;70650.75;5052067;28;20021;-74
2022/03/25 07:04:15;;;;;;;2.35;1.58;;;;;;;-143.85;100.00;70650.75;5051687;28;20021;-74
2022/03/25 07:06:42;;;;;;;4.13;1.88;;;;;;;-143.85;100.00;70650.75;5052748;28;20055;-73
2022/03/25 07:09:09;;;;;;;3.23;2.03;;;;;;;-143.85;100.00;70650.75;5051625;28;20024;-74
2022/03/25 07:11:35;;;;;;;3.92;2.22;;;;;;;-143.85;100.00;70650.75;5051670;28;20025;-73
2022/03/25 07:14:00;;;;;;;5.68;2.22;;;;;;;-143.85;100.00;70650.75;5051643;28;20028;-74
2022/03/25 07:16:25;;;;;;;1.00;1.00;;;;;;;-143.85;100.00;70650.75;5051698;28;20021;-74
2022/03/25 07:18:51;;;;;;;4.85;2.00;;;;;;;-143.85;100.00;70650.75;5051794;28;20079;-74
2022/03/25 07:21:16;;;;;;;4.22;1.67;;;;;;;-143.85;100.00;70650.75;5055302;28;20076;-76
2022/03/25 07:23:43;;;;;;;2.75;1.80;;;;;;;-143.85;100.00;70650.75;5054012;28;20074;-75
2022/03/25 07:26:08;;;;;;;1.58;1.10;;;;;;;-143.85;100.00;70650.75;5051650;28;20058;-74
2022/03/25 07:28:34;;;;;;;2.10;1.75;;;;;;;-143.85;100.00;70650.75;5053380;28;20025;-74
2022/03/25 07:31:00;;;;;;;2.17;1.40;;;;;;;-143.85;100.00;70650.75;5055730;28;20530;-75
2022/03/25 07:33:26;;;;;;;2.47;1.73;;;;;;;-143.85;100.00;70650.75;5055422;28;20036;-73
2022/03/25 07:35:51;;;;;;;3.15;1.88;;;;;;;-143.85;100.00;70650.75;5055242;28;20017;-73
2022/03/25 07:38:16;;;;;;;3.90;2.50;;;;;;;-143.85;100.00;70650.75;5055253;28;20033;-73
2022/03/25 07:40:42;;;;;;;2.17;1.98;;;;;;;-143.85;100.00;70650.75;5055474;28;20024;-75
2022/03/25 07:43:07;;;;;;;1.92;1.83;;;;;;;-143.85;100.00;70650.75;5055600;28;20036;-77
2022/03/25 07:45:33;;;;;;;6.18;3.20;;;;;;;-143.85;100.00;70650.75;5054927;28;20036;-74
2022/03/25 07:47:58;;;;;;;3.10;1.17;;;;;;;-143.85;100.00;70650.75;5055118;28;20509;-75
2022/03/25 07:50:24;;;;;;;1.35;1.25;;;;;;;-143.85;100.00;70650.75;5055425;28;20024;-73
2022/03/25 07:52:51;;;;;;;2.38;2.15;;;;;;;-143.85;100.00;70650.75;5055553;28;20032;-74
2022/03/25 07:55:19;;;;;;;1.83;1.73;;;;;;;-143.85;100.00;70650.75;5056416;28;20035;-76
2022/03/25 07:57:46;;;;;;;2.15;1.48;;;;;;;-143.85;100.00;70650.75;5055163;28;20035;-75
2022/03/25 08:00:13;;;;;;;6.80;3.15;;;;;;;-143.85;100.00;70650.75;5055159;28;20035;-73
2022/03/25 08:02:45;;;;;;;4.47;1.73;;;;;;;-143.85;100.00;70650.75;5054867;28;20021;-76
2022/03/25 08:05:11;;;;;;;1.73;1.58;;;;;;;-143.85;100.00;70650.75;5055100;28;20029;-76
2022/03/25 08:07:55;;;;;;;2.30;2.20;;;;;;;-143.85;100.00;70650.75;5054945;28;20028;-76
2022/03/25 08:10:23;;;;;;;2.20;1.90;;;;;;;-143.85;100.00;70650.75;5055175;28;20021;-76
2022/03/25 08:12:50;;;;;;;4.53;3.25;;;;;;;-143.85;100.00;70650.75;5054818;28;20481;-75
2022/03/25 08:15:16;;;;;;;3.17;0.80;;;;;;;-143.85;100.00;70650.75;5055020;28;20070;-76
2022/03/25 08:17:51;;;;;;;3.38;2.13;;;;;;;-143.85;100.00;70650.75;5055890;28;20354;-76
2022/03/25 08:20:39;;;;;;;3.30;2.45;;;;;;;-143.85;100.00;70650.75;5055068;28;20032;-76
2022/03/25 08:23:06;;;;;;;1.75;1.65;;;;;;;-143.85;100.00;70650.75;5055123;28;20032;-77
2022/03/25 08:28:18;;;;;;;2.47;2.30;;;;;;;-143.85;100.00;70650.75;5056276;28;20487;-76
2022/03/25 08:30:45;;;;;;;1.90;1.50;;;;;;;-143.85;100.00;70650.75;5057297;28;20096;-77
2022/03/25 08:33:11;;;;;;;2.30;1.93;;;;;;;-143.85;100.00;70650.75;5054723;28;20021;-77
2022/03/25 08:35:38;;;;;;;1.42;1.38;;;;;;;-143.85;100.00;70650.75;5054513;28;20350;-76
2022/03/25 08:38:05;;;;;;;11.02;1.95;;;;;;;-143.85;100.00;70650.75;5054432;28;20430;-74
2022/03/25 08:40:34;;;;;;;2.78;2.25;;;;;;;-143.85;100.00;70650.75;5053978;28;20059;-76
2022/03/25 08:43:01;;;;;;;2.58;2.38;;;;;;;-143.85;100.00;70650.75;5055581;28;20028;-77
2022/03/25 08:45:27;;;;;;;3.58;2.72;;;;;;;-143.85;100.00;70650.75;5053730;28;20029;-77
2022/03/25 08:47:52;;;;;;;5.50;2.00;;;;;;;-143.85;100.00;70650.75;5054273;28;20037;-76
2022/03/25 08:50:19;;;;;;;7.40;3.22;;;;;;;-143.85;100.00;70650.75;5054090;28;20120;-77
2022/03/25 08:52:46;;;;;;;4.20;3.03;;;;;;;-143.85;100.00;70650.75;5053965;28;20025;-78
2022/03/25 08:55:13;;;;;;;2.10;1.45;;;;;;;-143.85;100.00;70650.75;5054713;28;20032;-77
2022/03/25 08:57:39;;;;;;;3.00;2.17;;;;;;;-143.85;100.00;70650.75;5054286;28;20032;-78
2022/03/25 09:00:10;;;;;;;14.73;2.38;;;;;;;-143.85;100.00;70650.75;5054275;28;20033;-78
2022/03/25 09:02:36;;;;;;;2.05;1.90;;;;;;;-143.85;100.00;70650.75;5054382;28;20468;-75
2022/03/25 09:05:03;;;;;;;2.22;2.03;;;;;;;-143.85;100.00;70650.75;5054164;28;20024;-77
2022/03/25 09:07:29;;;;;;;7.68;1.17;;;;;;;-143.85;100.00;70650.75;5055159;28;20116;-77
2022/03/25 09:09:55;;;;;;;4.15;2.17;;;;;;;-143.85;100.00;70650.75;5054025;28;20021;-77
2022/03/25 09:12:20;;;;;;;4.03;2.50;;;;;;;-143.85;100.00;70650.75;5053898;28;20058;-77
2022/03/25 09:14:46;;;;;;;6.43;4.15;;;;;;;-143.85;100.00;70650.75;5053749;28;20112;-75
2022/03/25 09:17:11;;;;;;;3.72;2.50;;;;;;;-143.85;100.00;70650.75;5053856;28;20457;-75
2022/03/25 09:19:36;;;;;;;3.53;2.88;;;;;;;-143.85;100.00;70650.75;5053790;28;20388;-77
2022/03/25 09:22:02;;;;;;;17.45;3.17;;;;;;;-143.85;100.00;70650.75;5053435;28;20043;-78
2022/03/25 09:24:27;;;;;;;3.65;1.85;;;;;;;-143.85;100.00;70650.75;5053871;28;20111;-77
2022/03/25 09:26:53;;;;;;;2.38;2.05;;;;;;;-143.85;100.00;70650.75;5053735;28;20021;-77
2022/03/25 09:29:18;;;;;;;2.80;2.60;;;;;;;-143.85;100.00;70650.75;5054804;28;20472;-78
2022/03/25 09:31:44;;;;;;;3.67;2.17;;;;;;;-143.85;100.00;70650.75;5053687;28;20027;-77
2022/03/25 09:36:54;;;;;;;6.32;2.70;;;;;;;-143.85;100.00;70650.75;5054777;28;20035;-77
2022/03/25 09:39:20;;;;;;;2.92;2.72;;;;;;;-143.85;100.00;70650.75;5054167;28;20029;-76
2022/03/25 09:41:46;;;;;;;7.93;2.30;;;;;;;-143.85;100.00;70650.75;5053471;28;20024;-78
2022/03/25 09:44:14;;;;;;;2.33;2.05;;;;;;;-143.85;100.00;70650.75;5053367;28;20051;-78
2022/03/25 09:46:42;;;;;;;1.98;1.63;;;;;;;-143.85;100.00;70650.75;5053059;28;20048;-78
2022/03/25 09:49:09;;;;;;;2.97;2.00;;;;;;;-143.85;100.00;70650.75;5054651;28;20017;-76
2022/03/25 09:51:35;;;;;;;5.22;3.17;;;;;;;-143.85;100.00;70650.75;5052854;28;20119;-77
2022/03/25 09:54:01;;;;;;;2.00;1.85;;;;;;;-143.85;100.00;70650.75;5053096;28;20025;-80
2022/03/25 09:56:27;;;;;;;1.98;1.88;;;;;;;-143.85;100.00;70650.75;5052944;28;20036;-77
2022/03/25 09:58:52;;;;;;;3.10;2.17;;;;;;;-143.85;100.00;70650.75;5053062;28;20062;-76
2022/03/25 10:01:18;;;;;;;2.40;2.20;;;;;;;-143.85;100.00;70650.75;5052835;28;20089;-78
2022/03/25 10:03:43;;;;;;;4.88;2.33;;;;;;;-143.85;100.00;70650.75;5054708;28;20532;-80
2022/03/25 10:06:11;;;;;;;6.43;1.55;;;;;;;-143.85;100.00;70650.75;5054490;28;20465;-78
2022/03/25 10:08:38;;;;;;;2.38;2.25;;;;;;;-143.85;100.00;70650.75;5052736;28;20028;-76
2022/03/25 10:11:22;;;;;;;2.28;1.50;;;;;;;-143.85;100.00;70650.75;5052821;28;20029;-77
2022/03/25 10:13:49;;;;;;;1.40;1.30;;;;;;;-143.85;100.00;70650.75;5052730;28;20048;-80
2022/03/25 10:16:26;;;;;;;2.37;1.67;;;;;;;-143.85;100.00;70650.75;5052892;28;20024;-78
2022/03/25 10:18:53;;;;;;;3.70;2.22;;;;;;;-143.85;100.00;70650.75;5052874;28;20082;-77
2022/03/25 10:21:19;;;;;;;2.58;1.95;;;;;;;-143.85;100.00;70650.75;5052484;28;20020;-77
2022/03/25 10:23:45;;;;;;;7.85;2.03;;;;;;;-143.85;100.00;70650.75;5052746;28;20480;-79
2022/03/25 10:26:11;;;;;;;1.92;1.63;;;;;;;-143.85;100.00;70650.75;5051996;28;20024;-78
2022/03/25 10:28:42;;;;;;;9.98;2.05;;;;;;;-143.85;100.00;70650.75;5052759;28;20052;-78
2022/03/25 10:31:17;;;;;;;1.65;1.55;;;;;;;-143.85;100.00;70650.75;5052177;28;20017;-77
2022/03/25 10:33:58;;;;;;;5.68;2.42;;;;;;;-143.85;100.00;70650.75;5052433;28;20029;-78
2022/03/25 10:36:25;;;;;;;2.35;1.88;;;;;;;-143.85;100.00;70650.75;5053260;28;20453;-74
2022/03/25 10:39:04;;;;;;;1.38;1.27;;;;;;;-143.85;100.00;70650.75;5051993;28;20032;-73
2022/03/25 10:41:49;;;;;;;2.00;1.25;;;;;;;-143.85;100.00;70650.75;5052555;28;20039;-75
2022/03/25 10:44:15;;;;;;;3.50;3.20;;;;;;;-143.85;100.00;70650.75;5052441;28;20087;-72
2022/03/25 10:46:42;;;;;;;4.22;2.22;;;;;;;-143.85;100.00;70650.75;5051503;28;20041;-77
2022/03/25 10:49:10;;;;;;;2.45;2.33;;;;;;;-143.85;100.00;70650.75;5052603;28;20361;-78
2022/03/25 10:51:39;;;;;;;3.25;2.08;;;;;;;-143.85;100.00;70650.75;5052468;28;20039;-73
2022/03/25 10:54:09;;;;;;;2.55;2.25;;;;;;;-143.85;100.00;70650.75;5052584;28;20028;-74
2022/03/25 10:56:57;;;;;;;2.22;2.00;;;;;;;-143.85;100.00;70650.75;5051758;28;20119;-75
2022/03/25 10:59:34;;;;;;;3.50;1.73;;;;;;;-143.85;100.00;70650.75;5052383;28;20029;-76
2022/03/25 11:02:11;;;;;;;26.23;1.58;;;;;;;-143.85;100.00;70650.75;5052096;28;20032;-75
2022/03/25 11:04:37;;;;;;;0.83;0.83;;;;;;;-143.85;100.00;70650.75;5056061;28;20020;-77
2022/03/25 11:07:03;;;;;;;6.50;2.53;;;;;;;-143.85;100.00;70650.75;5057669;28;20021;-74
2022/03/25 11:09:30;;;;;;;2.20;1.92;;;;;;;-143.85;100.00;70650.75;5056763;28;20443;-76
2022/03/25 11:11:58;;;;;;;7.63;2.47;;;;;;;-143.85;100.00;70650.75;5057397;28;20032;-75